createdAt,value
2019-04-20T00:02:27.506Z,6.87
2019-04-20T00:04:57.085Z,6.60
2019-04-20T00:07:30.043Z,6.78
2019-04-20T00:10:07.627Z,6.84
2019-04-20T00:12:39.975Z,6.43
2019-04-20T00:14:58.652Z,6.55
2019-04-20T00:17:28.610Z,6.71
2019-04-20T00:19:58.998Z,6.50
2019-04-20T00:22:47.037Z,6.57
2019-04-20T00:25:25.442Z,6.51
2019-04-20T00:28:21.074Z,6.54
2019-04-20T00:30:54.406Z,6.51
2019-04-20T00:33:23.698Z,6.50
2019-04-20T00:35:35.937Z,6.63
2019-04-20T00:38:05.625Z,6.41
2019-04-20T00:40:36.095Z,6.30
2019-04-20T00:43:06.766Z,6.39
2019-04-20T00:45:44.926Z,6.04
2019-04-20T00:48:19.082Z,6.21
2019-04-20T00:50:50.835Z,5.96
2019-04-20T00:53:19.555Z,6.08
2019-04-20T00:55:38.026Z,6.30
2019-04-20T00:58:17.373Z,6.10
2019-04-20T01:01:04.212Z,6.17
2019-04-20T01:03:23.286Z,6.30
2019-04-20T01:06:08.227Z,6.20
2019-04-20T01:08:19.085Z,6.13
2019-04-20T01:10:51.483Z,5.96
2019-04-20T01:13:22.927Z,5.95
2019-04-20T01:15:55.451Z,5.82
2019-04-20T01:18:19.473Z,5.83
2019-04-20T01:20:49.184Z,5.69
2019-04-20T01:23:21.309Z,5.56
2019-04-20T01:25:56.904Z,5.66
2019-04-20T01:28:33.802Z,5.66
2019-04-20T01:30:59.962Z,5.48
2019-04-20T01:33:32.069Z,5.52
2019-04-20T01:36:03.444Z,5.59
2019-04-20T01:38:34.670Z,5.52
2019-04-20T01:40:50.930Z,5.39
2019-04-20T01:43:20.609Z,5.63
2019-04-20T01:45:58.606Z,5.60
2019-04-20T01:48:25.995Z,5.62
2019-04-20T01:50:59.854Z,5.58
2019-04-20T01:53:40.334Z,5.47
2019-04-20T01:56:09.888Z,5.45
2019-04-20T01:58:42.124Z,5.51
2019-04-20T02:00:58.844Z,5.44
2019-04-20T02:03:48.467Z,5.38
2019-04-20T02:06:20.237Z,5.16
2019-04-20T02:08:50.892Z,5.30
2019-04-20T02:11:23.072Z,5.26
2019-04-20T02:13:53.404Z,5.06
2019-04-20T02:16:27.302Z,5.16
2019-04-20T02:19:05.253Z,5.22
2019-04-20T02:21:34.236Z,5.19
2019-04-20T02:23:55.593Z,5.07
2019-04-20T02:26:20.026Z,5.07
2019-04-20T02:29:12.205Z,5.13
2019-04-20T02:37:13.551Z,4.85
2019-04-20T02:39:45.547Z,4.90
2019-04-20T02:47:16.417Z,4.81
2019-04-20T02:52:12.419Z,4.78
2019-04-20T02:54:46.442Z,4.80
2019-04-20T02:57:37.870Z,4.64
2019-04-20T03:02:01.397Z,4.59
2019-04-20T03:04:28.348Z,4.27
2019-04-20T03:06:58.401Z,4.41
2019-04-20T03:09:36.870Z,4.60
2019-04-20T03:12:08.037Z,4.68
2019-04-20T03:14:32.418Z,4.33
2019-04-20T03:17:12.757Z,4.22
2019-04-20T03:19:31.419Z,4.41
2019-04-20T03:24:43.676Z,4.37
2019-04-20T03:27:09.613Z,4.37
2019-04-20T03:29:51.066Z,4.35
2019-04-20T03:37:28.039Z,4.20
2019-04-20T03:39:46.676Z,3.89
2019-04-20T03:42:03.646Z,3.71
2019-04-20T03:44:34.262Z,4.12
2019-04-20T03:47:06.880Z,4.07
2019-04-20T03:49:54.813Z,4.14
2019-04-20T03:52:27.820Z,4.13
2019-04-20T03:54:55.250Z,3.94
2019-04-20T03:57:34.801Z,4.04
2019-04-20T04:00:24.425Z,4.07
2019-04-20T04:03:08.469Z,4.08
2019-04-20T04:05:27.901Z,3.99
2019-04-20T04:07:45.284Z,3.90
2019-04-20T04:10:25.904Z,3.88
2019-04-20T04:13:09.538Z,3.92
2019-04-20T04:15:44.238Z,3.99
2019-04-20T04:18:17.712Z,3.97
2019-04-20T04:20:47.861Z,3.98
2019-04-20T04:23:31.139Z,3.93
2019-04-20T04:26:00.620Z,3.90
2019-04-20T04:28:28.559Z,4.05
2019-04-20T04:31:05.185Z,4.06
2019-04-20T04:36:00.430Z,4.00
2019-04-20T04:38:37.752Z,3.87
2019-04-20T04:43:37.285Z,3.87
2019-04-20T04:45:47.030Z,3.90
2019-04-20T04:48:23.813Z,3.98
2019-04-20T04:50:52.766Z,4.00
2019-04-20T04:53:27.213Z,3.98
2019-04-20T04:55:54.861Z,4.00
2019-04-20T04:58:17.401Z,3.93
2019-04-20T05:00:46.769Z,4.00
2019-04-20T05:03:35.369Z,3.93
2019-04-20T05:06:10.587Z,3.98
2019-04-20T05:08:26.149Z,4.09
2019-04-20T05:10:51.958Z,4.33
2019-04-20T05:13:21.935Z,4.61
2019-04-20T05:16:05.187Z,6.79
2019-04-20T05:18:44.824Z,6.84
2019-04-20T05:21:18.811Z,6.63
2019-04-20T05:23:37.401Z,6.56
2019-04-20T05:26:20.008Z,6.71
2019-04-20T05:28:48.562Z,6.53
2019-04-20T05:31:11.363Z,6.87
2019-04-20T05:34:02.314Z,6.59
2019-04-20T05:36:29.721Z,6.93
2019-04-20T05:39:03.362Z,7.19
2019-04-20T05:41:32.782Z,7.58
2019-04-20T05:43:59.756Z,7.79
2019-04-20T05:46:32.367Z,7.93
2019-04-20T05:49:13.486Z,7.67
2019-04-20T05:51:43.270Z,8.04
2019-04-20T05:54:07.174Z,8.15
2019-04-20T05:56:43.884Z,8.48
2019-04-20T05:59:07.322Z,7.98
2019-04-20T06:01:42.353Z,8.31
2019-04-20T06:04:10.376Z,8.42
2019-04-20T06:06:37.735Z,8.67
2019-04-20T06:11:53.577Z,8.65
2019-04-20T06:14:10.177Z,8.53
2019-04-20T06:17:11.167Z,8.99
2019-04-20T06:19:35.701Z,9.42
2019-04-20T06:22:23.103Z,9.67
2019-04-20T06:24:54.814Z,9.78
2019-04-20T06:27:10.406Z,9.09
2019-04-20T06:29:41.463Z,9.00
2019-04-20T06:32:23.453Z,8.96
2019-04-20T06:34:49.081Z,8.56
2019-04-20T06:37:10.089Z,8.45
2019-04-20T06:42:15.210Z,8.82
2019-04-20T06:44:41.408Z,8.88
2019-04-20T06:47:29.332Z,9.30
2019-04-20T06:50:03.360Z,9.56
2019-04-20T06:55:05.544Z,9.75
2019-04-20T06:57:40.362Z,10.01
2019-04-20T07:00:18.172Z,10.05
2019-04-20T07:02:44.772Z,10.90
2019-04-20T07:05:13.076Z,10.90
2019-04-20T07:07:45.099Z,10.12
2019-04-20T07:12:36.889Z,11.16
2019-04-20T07:15:08.559Z,11.00
2019-04-20T07:20:51.612Z,11.69
2019-04-20T07:23:23.688Z,12.76
2019-04-20T07:25:47.366Z,13.18
2019-04-20T07:28:24.319Z,13.50
2019-04-20T07:30:44.899Z,12.21
2019-04-20T07:33:24.389Z,12.30
2019-04-20T07:35:46.136Z,12.81
2019-04-20T07:38:31.275Z,13.38
2019-04-20T07:40:44.008Z,13.62
2019-04-20T07:43:14.665Z,13.49
2019-04-20T07:45:50.238Z,14.21
2019-04-20T07:48:30.753Z,14.31
2019-04-20T07:50:40.843Z,14.83
2019-04-20T07:53:18.771Z,14.08
2019-04-20T07:56:04.906Z,15.25
2019-04-20T07:58:10.918Z,15.21
2019-04-20T08:01:05.892Z,15.23
2019-04-20T08:05:50.328Z,14.15
2019-04-20T08:08:23.981Z,14.81
2019-04-20T08:10:55.021Z,14.23
2019-04-20T08:13:42.085Z,14.80
2019-04-20T08:16:00.623Z,15.83
2019-04-20T08:18:35.227Z,15.53
2019-04-20T08:21:03.859Z,15.29
2019-04-20T08:23:34.854Z,15.59
2019-04-20T08:25:52.347Z,15.58
2019-04-20T08:28:22.714Z,15.80
2019-04-20T08:31:06.566Z,15.56
2019-04-20T08:33:47.175Z,15.16
2019-04-20T08:36:12.285Z,15.23
2019-04-20T08:41:09.700Z,15.46
2019-04-20T08:46:15.074Z,15.84
2019-04-20T08:48:46.912Z,16.68
2019-04-20T08:51:16.545Z,16.32
2019-04-20T08:53:47.670Z,16.31
2019-04-20T08:56:11.913Z,17.34
2019-04-20T08:58:27.611Z,17.69
2019-04-20T09:01:00.192Z,17.06
2019-04-20T09:03:31.712Z,17.06
2019-04-20T09:06:06.399Z,17.88
2019-04-20T09:08:36.693Z,18.29
2019-04-20T09:11:16.717Z,17.68
2019-04-20T09:13:37.193Z,17.83
2019-04-20T09:15:59.972Z,19.14
2019-04-20T09:18:43.855Z,18.88
2019-04-20T09:21:18.299Z,19.36
2019-04-20T09:23:51.821Z,18.79
2019-04-20T09:26:25.054Z,18.17
2019-04-20T09:28:54.348Z,19.18
2019-04-20T09:31:33.110Z,18.00
2019-04-20T09:34:13.338Z,18.44
2019-04-20T09:36:44.648Z,18.07
2019-04-20T09:39:12.742Z,18.50
2019-04-20T09:41:56.290Z,19.34
2019-04-20T09:44:06.702Z,19.45
2019-04-20T09:46:41.285Z,18.65
2019-04-20T09:49:15.733Z,19.13
2019-04-20T09:51:50.041Z,19.78
2019-04-20T09:54:25.825Z,19.22
2019-04-20T09:57:02.143Z,19.28
2019-04-20T09:59:28.989Z,19.32
2019-04-20T10:01:45.030Z,19.88
2019-04-20T10:04:09.072Z,20.32
2019-04-20T10:06:39.314Z,19.41
2019-04-20T10:09:09.631Z,19.68
2019-04-20T10:11:41.779Z,19.70
2019-04-20T10:14:10.300Z,19.62
2019-04-20T10:16:39.996Z,19.88
2019-04-20T10:19:11.448Z,19.85
2019-04-20T10:21:39.120Z,20.12
2019-04-20T10:24:08.560Z,20.90
2019-04-20T10:26:38.576Z,20.27
2019-04-20T10:29:07.916Z,20.81
2019-04-20T10:31:42.660Z,20.39
2019-04-20T10:34:07.514Z,20.78
2019-04-20T10:36:43.843Z,20.89
2019-04-20T10:39:12.960Z,21.22
2019-04-20T10:41:48.950Z,20.85
2019-04-20T10:44:12.411Z,20.20
2019-04-20T10:46:41.036Z,21.30
2019-04-20T10:49:11.094Z,20.86
2019-04-20T10:51:40.303Z,21.61
2019-04-20T10:54:08.992Z,21.47
2019-04-20T10:56:37.640Z,20.74
2019-04-20T10:59:07.627Z,21.35
2019-04-20T11:01:37.856Z,21.87
2019-04-20T11:04:06.677Z,21.96
2019-04-20T11:06:36.485Z,21.73
2019-04-20T11:09:08.769Z,21.57
2019-04-20T11:11:38.782Z,21.31
2019-04-20T11:14:17.917Z,21.54
2019-04-20T11:16:40.287Z,21.07
2019-04-20T11:19:09.445Z,21.51
2019-04-20T11:21:40.808Z,21.87
2019-04-20T11:24:10.043Z,22.40
2019-04-20T11:26:41.641Z,22.46
2019-04-20T11:29:10.438Z,22.46
2019-04-20T11:31:46.338Z,22.00
2019-04-20T11:34:10.253Z,21.80
2019-04-20T11:36:39.311Z,21.87
2019-04-20T11:39:11.269Z,21.91
2019-04-20T11:41:41.490Z,22.30
2019-04-20T11:44:11.720Z,22.39
2019-04-20T11:46:40.814Z,22.24
2019-04-20T11:49:09.772Z,21.85
2019-04-20T11:51:39.442Z,22.59
2019-04-20T11:54:08.413Z,22.35
2019-04-20T11:56:40.728Z,21.52
2019-04-20T11:59:07.530Z,22.23
2019-04-20T12:01:50.215Z,22.35
2019-04-20T12:04:26.127Z,23.10
2019-04-20T12:06:46.574Z,22.40
2019-04-20T12:09:15.342Z,22.43
2019-04-20T12:11:55.987Z,22.70
2019-04-20T12:14:14.518Z,22.90
2019-04-20T12:16:43.756Z,22.97
2019-04-20T12:19:12.737Z,23.03
2019-04-20T12:21:42.179Z,22.81
2019-04-20T12:24:12.241Z,22.89
2019-04-20T12:26:41.198Z,22.78
2019-04-20T12:29:10.021Z,22.85
2019-04-20T12:31:39.788Z,23.08
2019-04-20T12:34:08.719Z,23.03
2019-04-20T12:36:39.495Z,22.30
2019-04-20T12:39:10.982Z,23.00
2019-04-20T12:41:48.056Z,22.57
2019-04-20T12:44:10.137Z,22.44
2019-04-20T12:46:38.877Z,22.47
2019-04-20T12:49:07.814Z,22.52
2019-04-20T12:51:47.418Z,22.63
2019-04-20T12:54:07.072Z,23.12
2019-04-20T12:56:35.718Z,22.38
2019-04-20T12:59:05.532Z,22.40
2019-04-20T13:01:35.447Z,22.30
2019-04-20T13:04:07.126Z,22.59
2019-04-20T13:06:37.127Z,23.00
2019-04-20T13:09:10.718Z,23.08
2019-04-20T13:11:50.749Z,22.86
2019-04-20T13:14:50.664Z,22.72
2019-04-20T13:17:20.017Z,22.62
2019-04-20T13:19:49.202Z,22.67
2019-04-20T13:22:19.017Z,22.58
2019-04-20T13:24:49.232Z,22.72
2019-04-20T13:27:18.747Z,22.60
2019-04-20T13:29:50.541Z,22.61
2019-04-20T13:32:18.148Z,22.36
2019-04-20T13:34:47.043Z,23.09
2019-04-20T13:37:17.985Z,23.12
2019-04-20T13:39:46.875Z,22.90
2019-04-20T13:42:22.703Z,22.61
2019-04-20T13:44:46.126Z,22.84
2019-04-20T13:47:14.942Z,22.95
2019-04-20T13:49:45.070Z,22.72
2019-04-20T13:52:15.026Z,22.96
2019-04-20T13:54:44.122Z,23.19
2019-04-20T13:57:19.745Z,23.14
2019-04-20T13:59:52.127Z,23.22
2019-04-20T14:02:25.102Z,23.22
2019-04-20T14:04:58.969Z,23.21
2019-04-20T14:07:29.233Z,22.98
2019-04-20T14:09:59.514Z,22.85
2019-04-20T14:12:35.132Z,23.05
2019-04-20T14:14:59.450Z,23.37
2019-04-20T14:17:29.011Z,23.37
2019-04-20T14:20:01.093Z,22.69
2019-04-20T14:22:29.297Z,22.76
2019-04-20T14:24:58.229Z,22.64
2019-04-20T14:27:26.871Z,22.83
2019-04-20T14:29:57.002Z,23.09
2019-04-20T14:32:27.104Z,23.54
2019-04-20T14:34:56.820Z,23.44
2019-04-20T14:37:26.746Z,23.08
2019-04-20T14:39:56.422Z,23.27
2019-04-20T14:42:34.799Z,23.35
2019-04-20T14:44:55.777Z,23.40
2019-04-20T14:47:26.088Z,23.25
2019-04-20T14:49:55.714Z,23.53
2019-04-20T14:52:25.900Z,23.36
2019-04-20T14:54:55.343Z,23.45
2019-04-20T14:57:25.500Z,23.36
2019-04-20T14:59:55.994Z,23.28
2019-04-20T15:02:25.904Z,23.14
2019-04-20T15:04:54.930Z,23.08
2019-04-20T15:07:24.657Z,23.00
2019-04-20T15:09:54.981Z,23.02
2019-04-20T15:12:37.627Z,22.81
2019-04-20T15:14:54.581Z,22.64
2019-04-20T15:17:27.876Z,22.66
2019-04-20T15:20:05.550Z,22.44
2019-04-20T15:22:49.662Z,22.45
2019-04-20T15:25:18.746Z,22.91
2019-04-20T15:27:48.137Z,22.95
2019-04-20T15:30:18.353Z,22.80
2019-04-20T15:32:47.223Z,22.74
2019-04-20T15:35:19.121Z,22.71
2019-04-20T15:37:47.040Z,22.76
2019-04-20T15:40:17.308Z,22.28
2019-04-20T15:42:56.159Z,22.41
2019-04-20T15:45:16.570Z,22.73
2019-04-20T15:47:45.903Z,22.14
2019-04-20T15:50:15.991Z,21.66
2019-04-20T15:52:49.425Z,21.52
2019-04-20T15:55:22.617Z,21.46
2019-04-20T15:57:45.736Z,21.24
2019-04-20T16:00:16.231Z,20.99
2019-04-20T16:02:47.340Z,20.69
2019-04-20T16:05:18.635Z,20.46
2019-04-20T16:07:53.489Z,20.34
2019-04-20T16:10:19.255Z,20.27
2019-04-20T16:12:52.711Z,20.12
2019-04-20T16:15:19.892Z,19.98
2019-04-20T16:17:53.094Z,19.90
2019-04-20T16:20:23.526Z,19.74
2019-04-20T16:22:52.259Z,19.67
2019-04-20T16:25:25.659Z,19.54
2019-04-20T16:27:55.744Z,19.36
2019-04-20T16:30:25.392Z,19.13
2019-04-20T16:32:54.668Z,19.01
2019-04-20T16:35:24.590Z,18.80
2019-04-20T16:37:53.515Z,18.66
2019-04-20T16:40:23.469Z,18.58
2019-04-20T16:42:52.714Z,18.30
2019-04-20T16:45:21.537Z,18.11
2019-04-20T16:47:50.220Z,18.07
2019-04-20T16:50:19.307Z,17.86
2019-04-20T16:52:48.841Z,17.98
2019-04-20T16:55:18.837Z,17.86
2019-04-20T16:57:49.543Z,17.86
2019-04-20T17:00:21.013Z,17.70
2019-04-20T17:02:52.260Z,17.58
2019-04-20T17:05:23.016Z,17.45
2019-04-20T17:07:53.655Z,17.31
2019-04-20T17:10:23.816Z,17.51
2019-04-20T17:12:53.707Z,17.54
2019-04-20T17:15:23.620Z,17.62
2019-04-20T17:17:53.805Z,17.61
2019-04-20T17:20:25.211Z,17.62
2019-04-20T17:22:56.234Z,17.65
2019-04-20T17:25:25.915Z,17.46
2019-04-20T17:28:06.897Z,17.27
2019-04-20T17:30:37.917Z,17.10
2019-04-20T17:33:11.579Z,17.06
2019-04-20T17:35:52.315Z,16.95
2019-04-20T17:38:12.160Z,16.75
2019-04-20T17:41:01.262Z,16.66
2019-04-20T17:43:22.087Z,16.53
2019-04-20T17:45:52.363Z,16.33
2019-04-20T17:48:23.308Z,16.42
2019-04-20T17:51:04.751Z,16.37
2019-04-20T17:53:29.383Z,16.08
2019-04-20T17:55:51.393Z,15.97
2019-04-20T17:58:24.113Z,15.84
2019-04-20T18:01:22.048Z,15.84
2019-04-20T18:04:11.065Z,15.65
2019-04-20T18:06:34.955Z,15.53
2019-04-20T18:09:04.785Z,15.47
2019-04-20T18:11:23.459Z,15.51
2019-04-20T18:13:58.924Z,15.28
2019-04-20T18:16:49.315Z,15.20
2019-04-20T18:19:17.004Z,15.11
2019-04-20T18:21:43.532Z,14.98
2019-04-20T18:24:23.962Z,14.79
2019-04-20T18:26:57.655Z,14.77
2019-04-20T18:29:37.272Z,14.62
2019-04-20T18:31:51.449Z,14.58
2019-04-20T18:34:25.345Z,14.22
2019-04-20T18:36:52.804Z,14.29
2019-04-20T18:39:29.105Z,14.10
2019-04-20T18:42:01.174Z,14.02
2019-04-20T18:44:30.366Z,13.98
2019-04-20T18:47:18.215Z,13.92
2019-04-20T18:49:38.638Z,14.05
2019-04-20T18:51:55.649Z,14.09
2019-04-20T18:54:28.667Z,13.99
2019-04-20T18:56:56.477Z,13.71
2019-04-20T18:59:31.759Z,13.72
2019-04-20T19:01:57.023Z,13.82
2019-04-20T19:04:27.947Z,13.88
2019-04-20T19:06:59.486Z,14.00
2019-04-20T19:09:30.439Z,13.78
2019-04-20T19:12:02.882Z,13.72
2019-04-20T19:14:42.042Z,13.83
2019-04-20T19:17:16.718Z,13.76
2019-04-20T19:19:48.483Z,13.40
2019-04-20T19:22:14.305Z,13.36
2019-04-20T19:24:44.920Z,13.36
2019-04-20T19:27:17.009Z,13.08
2019-04-20T19:29:55.571Z,12.99
2019-04-20T19:32:30.263Z,12.95
2019-04-20T19:34:54.995Z,12.91
2019-04-20T19:37:24.238Z,12.82
2019-04-20T19:40:02.818Z,12.89
2019-04-20T19:42:34.725Z,12.65
2019-04-20T19:45:01.645Z,12.52
2019-04-20T19:47:41.606Z,12.61
2019-04-20T19:50:22.029Z,12.59
2019-04-20T19:53:09.691Z,12.72
2019-04-20T19:55:11.414Z,12.68
2019-04-20T19:57:42.447Z,12.64
2019-04-20T19:59:55.910Z,12.41
2019-04-20T20:02:23.691Z,12.52
2019-04-20T20:04:58.545Z,12.35
2019-04-20T20:07:30.897Z,12.22
2019-04-20T20:09:58.209Z,12.19
2019-04-20T20:12:25.344Z,12.05
2019-04-20T20:14:55.403Z,12.00
2019-04-20T20:17:45.362Z,11.95
2019-04-20T20:20:20.351Z,11.86
2019-04-20T20:22:35.199Z,11.71
2019-04-20T20:24:56.815Z,11.84
2019-04-20T20:27:32.588Z,11.85
2019-04-20T20:30:08.216Z,11.64
2019-04-20T20:32:49.070Z,11.65
2019-04-20T20:35:07.213Z,11.61
2019-04-20T20:37:34.662Z,11.59
2019-04-20T20:40:15.195Z,11.53
2019-04-20T20:42:45.815Z,11.42
2019-04-20T20:45:11.971Z,11.35
2019-04-20T20:47:47.158Z,11.38
2019-04-20T20:50:20.391Z,11.13
2019-04-20T20:52:50.852Z,10.90
2019-04-20T20:55:18.223Z,10.99
2019-04-20T20:57:44.877Z,11.01
2019-04-20T21:00:25.258Z,10.83
2019-04-20T21:02:47.197Z,10.70
2019-04-20T21:05:09.743Z,10.80
2019-04-20T21:07:38.650Z,10.75
2019-04-20T21:10:08.745Z,10.66
2019-04-20T21:12:45.505Z,10.54
2019-04-20T21:15:16.345Z,10.58
2019-04-20T21:18:05.542Z,10.33
2019-04-20T21:20:32.802Z,10.08
2019-04-20T21:22:58.722Z,9.90
2019-04-20T21:25:13.010Z,9.88
2019-04-20T21:27:42.564Z,10.08
2019-04-20T21:30:18.401Z,10.23
2019-04-20T21:32:46.990Z,10.31
2019-04-20T21:35:15.932Z,10.25
2019-04-20T21:37:51.251Z,10.20
2019-04-20T21:40:23.289Z,10.15
2019-04-20T21:42:51.643Z,10.02
2019-04-20T21:45:19.457Z,10.01
2019-04-20T21:47:48.290Z,9.80
2019-04-20T21:50:34.416Z,9.77
2019-04-20T21:52:51.998Z,9.69
2019-04-20T21:55:18.352Z,9.61
2019-04-20T21:57:51.692Z,9.44
2019-04-20T22:00:40.159Z,9.55
2019-04-20T22:03:06.277Z,9.48
2019-04-20T22:05:34.603Z,9.45
2019-04-20T22:08:07.859Z,9.52
2019-04-20T22:10:34.659Z,9.44
2019-04-20T22:13:06.303Z,9.25
2019-04-20T22:15:45.398Z,9.22
2019-04-20T22:18:10.981Z,9.14
2019-04-20T22:20:49.372Z,9.24
2019-04-20T22:23:23.285Z,9.16
2019-04-20T22:25:53.102Z,9.01
2019-04-20T22:28:08.739Z,9.27
2019-04-20T22:30:37.963Z,9.13
2019-04-20T22:33:08.217Z,8.93
2019-04-20T22:35:47.904Z,8.90
2019-04-20T22:38:26.682Z,8.92
2019-04-20T22:40:56.591Z,8.65
2019-04-20T22:43:30.183Z,8.72
2019-04-20T22:45:57.199Z,8.78
2019-04-20T22:48:27.060Z,8.59
2019-04-20T22:51:14.271Z,8.54
2019-04-20T22:53:45.600Z,8.65
2019-04-20T22:56:19.765Z,8.64
2019-04-20T22:58:47.943Z,8.63
2019-04-20T23:01:05.269Z,8.48
2019-04-20T23:03:30.955Z,8.32
2019-04-20T23:06:00.636Z,8.10
2019-04-20T23:08:30.684Z,8.07
2019-04-20T23:11:02.590Z,8.22
2019-04-20T23:13:38.028Z,8.25
2019-04-20T23:16:02.633Z,8.24
2019-04-20T23:18:31.936Z,8.28
2019-04-20T23:21:06.290Z,8.25
2019-04-20T23:23:32.539Z,8.12
2019-04-20T23:26:03.009Z,8.03
2019-04-20T23:28:33.252Z,7.92
2019-04-20T23:31:07.409Z,8.08
2019-04-20T23:33:32.651Z,8.07
2019-04-20T23:36:04.390Z,8.13
2019-04-20T23:38:32.919Z,7.99
2019-04-20T23:41:01.833Z,7.67
2019-04-20T23:43:36.780Z,7.60
2019-04-20T23:46:22.268Z,7.66
2019-04-20T23:48:48.108Z,7.59
2019-04-20T23:51:46.203Z,7.68
2019-04-20T23:53:56.786Z,7.67
2019-04-20T23:56:20.168Z,7.57
2019-04-20T23:58:52.949Z,7.51
